Time;durP1;ratioP1;P1;durP2;ratioP2;P2;SDS_P1;SDS_P2;PMS_P1;PMS_P2;Temp;Humidity;BMP_temperature;BMP_pressure;BME280_temperature;BME280_humidity;BME280_pressure;Samples;Min_cycle;Max_cycle;Signal;HPM_P1;HPM_P2
2022/12/19 00:02:09;;;;;;;22.75;15.43;;;13.50;63.60;;;;;;4148943;28;20049;-60
2022/12/19 00:04:51;;;;;;;20.52;13.80;;;13.60;63.40;;;;;;4159896;28;20052;-60
2022/12/19 00:07:32;;;;;;;19.80;13.55;;;13.70;63.10;;;;;;4161022;28;20052;-60
2022/12/19 00:10:13;;;;;;;21.17;14.32;;;13.70;63.00;;;;;;4159784;28;20048;-60
2022/12/19 00:12:54;;;;;;;21.17;14.20;;;13.70;62.80;;;;;;4159755;28;20052;-60
2022/12/19 00:15:35;;;;;;;26.45;15.82;;;13.80;62.90;;;;;;4161336;28;20500;-60
2022/12/19 00:18:16;;;;;;;21.33;14.27;;;13.80;62.70;;;;;;4160955;28;20412;-60
2022/12/19 00:21:00;;;;;;;20.55;13.55;;;13.90;62.60;;;;;;4144443;28;20192;-60
2022/12/19 00:23:41;;;;;;;20.52;14.32;;;13.90;62.50;;;;;;4150634;28;20087;-60
2022/12/19 00:26:23;;;;;;;20.42;15.02;;;13.90;63.30;;;;;;4159596;28;20615;-60
2022/12/19 00:29:06;;;;;;;22.05;15.20;;;13.90;62.40;;;;;;4160676;28;20056;-59
2022/12/19 00:31:53;;;;;;;21.45;15.55;;;13.90;62.40;;;;;;4159603;28;20053;-60
2022/12/19 00:34:34;;;;;;;22.15;15.27;;;14.00;62.30;;;;;;4160613;28;20056;-59
2022/12/19 00:37:17;;;;;;;21.92;14.98;;;14.10;62.30;;;;;;4159105;28;20056;-60
2022/12/19 00:39:58;;;;;;;20.90;15.27;;;14.10;62.00;;;;;;4160515;28;20060;-60
2022/12/19 00:42:38;;;;;;;20.87;15.30;;;14.10;61.80;;;;;;4160611;28;20808;-60
2022/12/19 00:45:22;;;;;;;21.45;15.02;;;14.10;61.80;;;;;;4159857;28;20329;-60
2022/12/19 00:48:02;;;;;;;22.67;15.68;;;14.00;62.00;;;;;;4156835;28;20061;-60
2022/12/19 00:50:43;;;;;;;21.55;15.30;;;14.00;62.00;;;;;;4160516;28;20056;-60
2022/12/19 00:53:28;;;;;;;23.55;15.57;;;14.00;62.20;;;;;;4159160;28;20056;-60
2022/12/19 00:56:12;;;;;;;22.23;15.68;;;14.00;62.10;;;;;;4160313;28;20056;-60
2022/12/19 00:58:54;;;;;;;20.52;14.77;;;14.00;62.00;;;;;;4160267;28;20052;-59
2022/12/19 01:01:36;;;;;;;;;;;14.10;62.20;;;;;;4160540;28;20543;-60
2022/12/19 01:04:18;;;;;;;22.48;16.13;;;14.10;62.10;;;;;;4159438;28;19928;-60
2022/12/19 01:07:09;;;;;;;25.40;15.82;;;14.20;62.00;;;;;;4143521;28;20104;-60
2022/12/19 01:09:51;;;;;;;21.92;14.30;;;14.30;61.80;;;;;;4143699;28;20508;-59
2022/12/19 01:12:46;;;;;;;25.40;17.77;;;14.30;61.60;;;;;;4145854;28;20501;-60
2022/12/19 01:15:27;;;;;;;22.60;16.05;;;14.40;61.40;;;;;;4159810;28;20118;-60
2022/12/19 01:18:09;;;;;;;25.80;17.00;;;14.40;61.20;;;;;;4159827;28;20531;-60
2022/12/19 01:20:49;;;;;;;;;;;14.40;61.20;;;;;;4160417;28;20180;-60
2022/12/19 01:23:31;;;;;;;23.40;16.83;;;14.40;61.20;;;;;;4159928;28;19928;-60
2022/12/19 01:26:13;;;;;;;23.27;15.98;;;14.40;61.20;;;;;;4159888;28;20048;-60
2022/12/19 01:28:54;;;;;;;23.38;16.60;;;14.40;61.10;;;;;;4143511;28;20056;-60
2022/12/19 01:31:34;;;;;;;27.85;18.30;;;14.40;61.30;;;;;;4143311;28;20060;-60
2022/12/19 01:34:15;;;;;;;24.90;16.98;;;14.50;61.30;;;;;;4157374;28;20188;-60
2022/12/19 01:36:56;;;;;;;27.00;17.05;;;14.50;61.00;;;;;;4159738;28;20060;-60
2022/12/19 01:39:37;;;;;;;24.23;15.95;;;14.60;60.80;;;;;;4158700;28;20060;-60
2022/12/19 01:42:21;;;;;;;23.35;16.15;;;14.60;60.60;;;;;;4159625;28;20381;-60
2022/12/19 01:45:25;;;;;;;25.38;17.67;;;14.70;60.40;;;;;;4159752;28;20195;-60
2022/12/19 01:48:17;;;;;;;23.20;16.05;;;14.70;60.30;;;;;;4159310;28;20066;-60
2022/12/19 01:51:00;;;;;;;26.13;17.13;;;14.70;60.30;;;;;;4159711;28;20052;-60
2022/12/19 01:53:46;;;;;;;22.38;15.43;;;14.70;60.30;;;;;;4159436;28;20115;-60
2022/12/19 01:56:33;;;;;;;23.30;16.98;;;14.60;60.40;;;;;;4143166;28;20560;-60
2022/12/19 01:59:19;;;;;;;23.88;16.10;;;14.50;60.70;;;;;;4142107;28;20064;-60
2022/12/19 02:02:08;;;;;;;21.83;14.57;;;14.50;61.00;;;;;;4158915;28;20056;-60
2022/12/19 02:04:51;;;;;;;25.65;17.40;;;14.50;61.10;;;;;;4158158;28;20055;-60
2022/12/19 02:07:32;;;;;;;22.40;15.73;;;14.50;61.20;;;;;;4158956;28;20052;-60
2022/12/19 02:10:13;;;;;;;23.45;15.63;;;14.40;61.20;;;;;;4159415;28;20123;-60
2022/12/19 02:12:54;;;;;;;23.45;15.48;;;14.50;61.30;;;;;;4157069;28;20083;-60
2022/12/19 02:15:46;;;;;;;24.30;16.60;;;14.50;61.10;;;;;;4158440;28;20119;-60
2022/12/19 02:18:37;;;;;;;24.05;16.73;;;14.60;60.90;;;;;;4158806;28;20068;-62
2022/12/19 02:21:35;;;;;;;21.67;15.43;;;14.60;60.80;;;;;;4157542;28;20056;-61
2022/12/19 02:24:51;;;;;;;22.80;16.15;;;14.70;60.90;;;;;;4141487;28;20095;-60
2022/12/19 02:27:56;;;;;;;23.20;15.77;;;14.80;60.40;;;;;;4141559;28;20517;-61
2022/12/19 02:30:52;;;;;;;23.33;15.30;;;14.80;60.10;;;;;;4141233;28;20053;-61
2022/12/19 02:33:43;;;;;;;21.27;15.35;;;14.90;60.00;;;;;;4156010;28;20052;-61
2022/12/19 02:36:32;;;;;;;22.60;15.73;;;15.00;59.70;;;;;;4158077;28;20122;-61
2022/12/19 02:39:19;;;;;;;22.40;15.60;;;15.00;59.50;;;;;;4157646;28;20056;-62
2022/12/19 02:42:02;;;;;;;22.02;15.05;;;15.10;59.60;;;;;;4130279;28;20060;-61
2022/12/19 02:44:47;;;;;;;23.75;15.73;;;15.10;59.50;;;;;;4142697;28;20065;-60
2022/12/19 02:47:32;;;;;;;25.95;17.10;;;15.10;59.40;;;;;;4141652;28;20053;-60
2022/12/19 02:50:14;;;;;;;27.30;17.45;;;15.20;59.40;;;;;;4141835;28;20053;-60
2022/12/19 02:52:55;;;;;;;23.20;16.40;;;15.10;59.40;;;;;;4141482;28;20064;-60
2022/12/19 02:55:43;;;;;;;20.95;14.85;;;15.10;59.50;;;;;;4142771;28;20562;-60
2022/12/19 02:58:52;;;;;;;23.60;15.75;;;15.20;59.50;;;;;;4158273;28;20068;-60
2022/12/19 03:01:44;;;;;;;24.30;16.35;;;15.20;59.30;;;;;;4152387;28;20049;-61
2022/12/19 03:04:39;;;;;;;22.08;15.13;;;15.20;60.00;;;;;;4142782;28;20073;-60
2022/12/19 03:07:30;;;;;;;25.80;16.77;;;15.20;59.20;;;;;;4141195;28;20056;-61
2022/12/19 03:10:18;;;;;;;23.40;15.85;;;15.10;59.40;;;;;;4142283;28;20093;-60
2022/12/19 03:13:08;;;;;;;22.20;15.63;;;15.20;59.50;;;;;;4160522;28;20176;-60
2022/12/19 03:15:51;;;;;;;21.30;15.10;;;15.20;59.30;;;;;;4161913;28;20064;-60
2022/12/19 03:18:34;;;;;;;24.50;16.20;;;15.20;59.40;;;;;;4145527;28;20559;-60
2022/12/19 03:21:23;;;;;;;25.20;16.35;;;15.20;59.40;;;;;;4145444;28;20069;-60
2022/12/19 03:24:06;;;;;;;24.73;16.42;;;15.20;59.40;;;;;;4146738;28;20053;-60
2022/12/19 03:26:54;;;;;;;25.45;16.45;;;15.10;59.50;;;;;;4161339;28;20068;-60
2022/12/19 03:29:41;;;;;;;23.88;15.80;;;15.10;59.50;;;;;;4161726;28;20056;-60
2022/12/19 03:32:23;;;;;;;21.70;14.70;;;15.00;59.80;;;;;;4161439;28;20052;-60
2022/12/19 03:35:10;;;;;;;22.45;13.73;;;15.00;60.00;;;;;;4161614;28;20056;-60
2022/12/19 03:37:55;;;;;;;20.45;15.80;;;15.10;59.90;;;;;;4160900;28;20060;-61
2022/12/19 03:40:38;;;;;;;24.88;16.08;;;15.10;59.60;;;;;;4145267;28;20589;-61
2022/12/19 03:43:20;;;;;;;20.33;15.50;;;15.20;59.60;;;;;;4145272;28;20052;-60
2022/12/19 03:46:06;;;;;;;22.15;15.63;;;15.10;59.50;;;;;;4156136;28;20508;-60
2022/12/19 03:48:48;;;;;;;21.73;15.88;;;15.10;59.70;;;;;;4161200;28;20424;-60
2022/12/19 03:51:36;;;;;;;20.08;14.45;;;15.20;59.70;;;;;;4161517;28;20122;-60
2022/12/19 03:54:23;;;;;;;24.33;15.52;;;15.20;59.50;;;;;;4159285;28;20052;-60
2022/12/19 03:57:09;;;;;;;22.80;15.77;;;15.20;60.30;;;;;;4161018;28;20056;-60
2022/12/19 03:59:54;;;;;;;22.50;15.43;;;15.30;59.60;;;;;;4161304;28;20063;-60
2022/12/19 04:02:38;;;;;;;24.40;16.70;;;15.30;59.40;;;;;;4161189;28;20063;-64
2022/12/19 04:05:21;;;;;;;20.42;15.02;;;15.30;59.30;;;;;;4161060;28;20063;-64
2022/12/19 04:08:06;;;;;;;22.75;16.70;;;15.30;59.40;;;;;;4144624;28;20062;-64
2022/12/19 04:10:55;;;;;;;22.25;15.82;;;15.30;59.40;;;;;;4151432;28;20888;-65
2022/12/19 04:13:41;;;;;;;24.05;17.17;;;15.40;59.40;;;;;;4159709;28;20098;-64
2022/12/19 04:16:29;;;;;;;24.35;17.27;;;15.30;59.30;;;;;;4159902;28;20475;-64
2022/12/19 04:19:15;;;;;;;26.05;18.60;;;15.30;59.40;;;;;;4160874;28;20052;-65
2022/12/19 04:22:01;;;;;;;26.08;17.92;;;15.40;59.40;;;;;;4143753;28;20509;-65
2022/12/19 04:24:45;;;;;;;25.77;18.00;;;15.40;60.00;;;;;;4144005;28;20170;-65
2022/12/19 04:27:32;;;;;;;31.13;19.33;;;15.40;59.30;;;;;;4158343;28;20055;-64
2022/12/19 04:30:15;;;;;;;29.42;19.23;;;15.40;59.30;;;;;;4144298;28;20123;-65
2022/12/19 04:32:57;;;;;;;30.38;19.60;;;15.30;59.40;;;;;;4144283;28;20184;-64
2022/12/19 04:35:38;;;;;;;28.88;18.73;;;15.30;59.40;;;;;;4157939;28;20085;-64
2022/12/19 04:38:19;;;;;;;29.95;19.50;;;15.30;59.60;;;;;;4159360;28;20071;-65
2022/12/19 04:40:59;;;;;;;29.08;18.23;;;15.20;60.40;;;;;;4160607;28;20087;-66
2022/12/19 04:43:42;;;;;;;25.35;17.27;;;15.20;59.80;;;;;;4160639;28;20060;-65
2022/12/19 04:46:23;;;;;;;25.95;17.85;;;15.10;60.50;;;;;;4154117;28;20056;-65
2022/12/19 04:49:04;;;;;;;20.90;15.52;;;15.10;59.90;;;;;;4160428;28;20048;-65
2022/12/19 04:51:45;;;;;;;22.70;14.98;;;15.00;60.10;;;;;;4160573;28;20083;-64
2022/12/19 04:54:26;;;;;;;21.52;15.07;;;15.00;60.50;;;;;;4160436;28;20495;-65
2022/12/19 04:57:06;;;;;;;22.10;16.13;;;14.90;60.50;;;;;;4159905;28;20107;-65
2022/12/19 04:59:49;;;;;;;20.92;14.40;;;14.90;60.80;;;;;;4160476;28;20056;-64
2022/12/19 05:02:30;;;;;;;20.48;13.88;;;14.80;61.00;;;;;;4160189;28;20162;-64
2022/12/19 05:05:11;;;;;;;;;;;14.80;61.10;;;;;;4160735;28;20099;-65
2022/12/19 05:07:52;;;;;;;21.77;14.57;;;14.70;61.20;;;;;;4160381;28;19928;-64
2022/12/19 05:10:33;;;;;;;21.33;15.68;;;14.70;61.50;;;;;;4160201;28;20488;-65
2022/12/19 05:13:14;;;;;;;24.42;15.00;;;14.70;61.60;;;;;;4144051;28;20169;-65
2022/12/19 05:15:58;;;;;;;19.75;14.73;;;14.80;61.50;;;;;;4143946;28;20056;-64
2022/12/19 05:18:38;;;;;;;22.05;15.27;;;14.90;61.30;;;;;;4153996;28;20051;-64
2022/12/19 05:21:20;;;;;;;20.17;14.73;;;14.90;61.20;;;;;;4160017;28;20106;-64
2022/12/19 05:24:00;;;;;;;19.50;13.50;;;15.00;61.10;;;;;;4160269;28;20052;-65
2022/12/19 05:26:41;;;;;;;18.92;14.50;;;15.00;60.90;;;;;;4159792;28;20065;-64
2022/12/19 05:29:23;;;;;;;22.15;15.02;;;15.10;60.90;;;;;;4160326;28;20104;-64
2022/12/19 05:32:05;;;;;;;21.50;14.98;;;15.10;60.50;;;;;;4160191;28;20183;-64
2022/12/19 05:34:46;;;;;;;17.83;13.65;;;15.20;60.40;;;;;;4159118;28;20076;-64
2022/12/19 05:37:27;;;;;;;19.23;13.80;;;15.30;60.30;;;;;;4159437;28;20389;-64
2022/12/19 05:40:09;;;;;;;21.13;15.15;;;15.30;60.30;;;;;;4159240;28;20543;-66
2022/12/19 05:42:49;;;;;;;;;;;15.30;60.20;;;;;;4159983;28;20507;-65
2022/12/19 05:45:30;;;;;;;19.77;14.35;;;15.30;60.10;;;;;;4151127;28;19928;-65
2022/12/19 05:48:13;;;;;;;20.05;14.80;;;15.30;60.30;;;;;;4159165;28;20068;-65
2022/12/19 05:50:54;;;;;;;19.30;13.43;;;15.30;60.20;;;;;;4157921;28;20176;-65
2022/12/19 05:53:36;;;;;;;18.05;13.75;;;15.30;60.20;;;;;;4159408;28;20176;-65
2022/12/19 05:56:19;;;;;;;18.77;13.32;;;15.30;61.10;;;;;;4159608;28;20044;-65
2022/12/19 05:59:00;;;;;;;20.55;13.40;;;15.30;60.40;;;;;;4159345;28;20048;-65
2022/12/19 06:01:40;;;;;;;16.55;12.63;;;15.30;60.30;;;;;;4159740;28;20056;-65
2022/12/19 06:04:23;;;;;;;18.27;13.65;;;15.20;60.40;;;;;;4159197;28;20111;-64
2022/12/19 06:07:04;;;;;;;16.85;12.70;;;15.10;60.60;;;;;;4159389;28;20507;-64
2022/12/19 06:09:44;;;;;;;16.17;13.10;;;15.10;60.90;;;;;;4159205;28;20103;-64
2022/12/19 06:12:25;;;;;;;16.25;12.95;;;15.10;60.90;;;;;;4159396;28;20119;-64
2022/12/19 06:15:07;;;;;;;14.75;12.05;;;15.10;61.70;;;;;;4143101;28;20053;-60
2022/12/19 06:17:48;;;;;;;18.83;13.43;;;15.10;60.80;;;;;;4143371;28;20056;-60
2022/12/19 06:20:30;;;;;;;18.40;12.73;;;15.20;60.90;;;;;;4144697;28;20131;-60
2022/12/19 06:23:11;;;;;;;14.77;11.55;;;15.20;60.70;;;;;;4159322;28;20134;-60
2022/12/19 06:25:52;;;;;;;14.77;10.65;;;15.30;60.70;;;;;;4158975;28;20172;-60
2022/12/19 06:28:34;;;;;;;14.93;11.98;;;15.40;60.40;;;;;;4143193;28;20349;-60
2022/12/19 06:31:15;;;;;;;;;;;15.40;60.40;;;;;;4143553;28;20049;-60
2022/12/19 06:33:56;;;;;;;13.05;10.07;;;15.50;60.30;;;;;;4158661;28;19971;-60
2022/12/19 06:36:41;;;;;;;12.85;10.20;;;15.50;60.10;;;;;;4159390;28;20107;-60
2022/12/19 06:39:22;;;;;;;11.88;10.10;;;15.50;60.90;;;;;;4158098;28;20480;-60
2022/12/19 06:45:01;;;;;;;10.77;9.45;;;15.60;60.00;;;;;;4157921;28;20044;-60
2022/12/19 06:47:42;;;;;;;11.73;8.85;;;15.70;59.80;;;;;;4161031;28;20068;-65
2022/12/19 06:50:24;;;;;;;10.70;8.40;;;15.80;59.60;;;;;;4162003;28;20051;-65
2022/12/19 06:53:06;;;;;;;;;;;15.70;59.50;;;;;;4162867;28;20048;-65
2022/12/19 06:55:47;;;;;;;11.45;9.07;;;15.70;59.50;;;;;;4145876;28;19928;-65
2022/12/19 06:58:28;;;;;;;13.20;8.93;;;15.80;59.60;;;;;;4146139;28;20061;-66
2022/12/19 07:01:16;;;;;;;10.13;7.90;;;15.80;59.50;;;;;;4145786;28;20057;-66
2022/12/19 07:03:57;;;;;;;9.63;8.25;;;15.70;60.20;;;;;;4154922;28;20287;-66
2022/12/19 07:06:38;;;;;;;8.30;7.40;;;15.70;59.60;;;;;;4162194;28;20060;-66
2022/12/19 07:09:25;;;;;;;10.52;8.07;;;15.60;59.80;;;;;;4162033;28;20068;-67
2022/12/19 07:12:07;;;;;;;9.38;7.72;;;15.60;59.90;;;;;;4162006;28;20044;-65
2022/12/19 07:14:47;;;;;;;9.48;8.00;;;15.60;60.00;;;;;;4161970;28;20064;-62
2022/12/19 07:17:36;;;;;;;8.77;7.30;;;15.60;60.10;;;;;;4161318;28;20555;-64
2022/12/19 07:20:19;;;;;;;11.15;7.32;;;15.50;60.80;;;;;;4161669;28;20057;-65
2022/12/19 07:23:01;;;;;;;8.45;7.50;;;15.60;60.90;;;;;;4161473;28;20048;-65
2022/12/19 07:25:43;;;;;;;8.20;7.35;;;15.60;60.80;;;;;;4160008;28;20052;-65
2022/12/19 07:28:24;;;;;;;10.02;7.55;;;15.50;60.80;;;;;;4159979;28;20064;-64
2022/12/19 07:31:05;;;;;;;9.73;7.20;;;15.50;60.90;;;;;;4161024;28;20060;-65
2022/12/19 07:33:45;;;;;;;8.52;7.25;;;15.50;60.90;;;;;;4161570;28;20127;-60
2022/12/19 07:36:26;;;;;;;7.05;6.35;;;15.60;60.50;;;;;;4150945;28;20053;-60
2022/12/19 07:39:07;;;;;;;6.83;6.13;;;15.60;60.30;;;;;;4159437;28;20045;-60
2022/12/19 07:41:49;;;;;;;6.72;6.05;;;15.60;60.40;;;;;;4152707;28;20392;-60
2022/12/19 07:44:42;;;;;;;6.45;5.85;;;15.60;60.20;;;;;;4144366;28;20061;-60
2022/12/19 07:47:26;;;;;;;6.87;6.23;;;15.60;60.30;;;;;;4144769;28;20052;-60
2022/12/19 07:50:07;;;;;;;6.72;6.13;;;15.60;60.30;;;;;;4144868;28;20296;-60
2022/12/19 07:52:48;;;;;;;6.75;5.82;;;15.60;60.20;;;;;;4145036;28;20069;-60
2022/12/19 07:55:29;;;;;;;6.60;5.90;;;15.60;60.10;;;;;;4144548;28;20185;-60
2022/12/19 07:58:15;;;;;;;6.28;5.68;;;15.50;60.20;;;;;;4144802;28;20053;-60
2022/12/19 08:00:57;;;;;;;6.10;5.60;;;15.50;60.30;;;;;;4157014;28;20187;-60
2022/12/19 08:03:37;;;;;;;;;;;15.60;60.20;;;;;;4161309;28;20072;-60
2022/12/19 08:06:20;;;;;;;6.63;5.95;;;15.60;60.00;;;;;;4161037;28;19928;-60
2022/12/19 08:09:00;;;;;;;;;;;15.60;59.80;;;;;;4161446;28;20412;-60
2022/12/19 08:11:41;;;;;;;6.28;5.68;;;15.70;59.80;;;;;;4160671;28;20264;-60
2022/12/19 08:14:23;;;;;;;5.95;5.35;;;15.70;59.50;;;;;;4147400;28;20224;-60
2022/12/19 08:17:05;;;;;;;5.38;4.93;;;15.80;60.20;;;;;;4156658;28;20106;-60
2022/12/19 08:20:02;;;;;;;5.30;4.80;;;15.80;59.40;;;;;;4160802;28;20055;-60
2022/12/19 08:22:42;;;;;;;7.72;5.13;;;15.80;59.40;;;;;;4160240;28;20412;-60
2022/12/19 08:25:23;;;;;;;5.22;4.75;;;15.90;59.30;;;;;;4160820;28;20052;-60
2022/12/19 08:28:05;;;;;;;5.90;5.18;;;15.90;59.20;;;;;;4160695;28;20099;-60
2022/12/19 08:30:47;;;;;;;6.13;5.53;;;15.80;59.30;;;;;;4159534;28;20064;-60
2022/12/19 08:33:28;;;;;;;5.38;4.88;;;15.80;59.50;;;;;;4160343;28;20119;-60
2022/12/19 08:36:12;;;;;;;5.65;5.15;;;15.90;59.50;;;;;;4152364;28;20168;-60
2022/12/19 08:38:53;;;;;;;4.82;4.43;;;15.90;59.40;;;;;;4160512;28;20057;-60
2022/12/19 08:41:35;;;;;;;4.78;4.40;;;15.90;59.30;;;;;;4160311;28;20098;-60
2022/12/19 08:44:16;;;;;;;5.35;4.90;;;15.90;59.30;;;;;;4160326;28;20041;-60
2022/12/19 08:46:59;;;;;;;4.70;4.28;;;15.80;59.40;;;;;;4146603;28;20057;-60
2022/12/19 08:49:39;;;;;;;5.32;4.93;;;15.80;59.60;;;;;;4154965;28;20520;-60
2022/12/19 08:52:20;;;;;;;3.60;3.30;;;15.70;59.70;;;;;;4160097;28;20512;-60
2022/12/19 08:55:01;;;;;;;4.55;4.25;;;15.70;60.00;;;;;;4160420;28;20048;-60
2022/12/19 08:57:42;;;;;;;4.28;3.97;;;15.70;60.60;;;;;;4160436;28;20064;-60
2022/12/19 09:00:23;;;;;;;4.28;3.90;;;15.60;61.20;;;;;;4160044;28;20056;-60
2022/12/19 09:03:06;;;;;;;4.85;4.45;;;15.60;61.40;;;;;;4160055;28;20075;-60
2022/12/19 09:05:47;;;;;;;4.15;3.83;;;15.50;61.60;;;;;;4160432;28;20068;-60
2022/12/19 09:08:46;;;;;;;4.32;3.80;;;15.50;61.70;;;;;;4143753;28;20405;-60
2022/12/19 09:11:26;;;;;;;3.72;3.45;;;15.50;61.70;;;;;;4143759;28;20065;-59
2022/12/19 09:14:07;;;;;;;4.45;4.05;;;15.50;61.60;;;;;;4143518;28;20496;-60
2022/12/19 09:16:48;;;;;;;4.85;4.45;;;15.50;61.60;;;;;;4159273;28;20480;-60
2022/12/19 09:19:31;;;;;;;4.20;3.90;;;15.50;61.70;;;;;;4159797;28;20064;-60
2022/12/19 09:22:12;;;;;;;4.50;4.10;;;15.50;61.80;;;;;;4159671;28;20049;-59
2022/12/19 09:24:53;;;;;;;4.97;3.97;;;15.60;61.80;;;;;;4160110;28;20052;-59
2022/12/19 09:27:34;;;;;;;4.05;3.75;;;15.70;61.70;;;;;;4160243;28;20057;-61
2022/12/19 09:30:35;;;;;;;4.25;3.92;;;15.70;61.80;;;;;;4159841;28;20118;-60
2022/12/19 09:33:16;;;;;;;4.30;3.75;;;15.80;62.00;;;;;;4142789;28;20131;-60
2022/12/19 09:35:59;;;;;;;4.17;3.93;;;15.90;62.00;;;;;;4152285;28;20077;-60
2022/12/19 09:38:39;;;;;;;4.53;3.75;;;15.90;61.80;;;;;;4159898;28;20283;-58
2022/12/19 09:41:35;;;;;;;4.80;4.40;;;15.90;61.60;;;;;;4159851;28;20487;-58
2022/12/19 09:44:27;;;;;;;4.20;3.90;;;15.90;61.70;;;;;;4143257;28;20056;-58
2022/12/19 09:47:13;;;;;;;4.05;3.75;;;15.80;61.70;;;;;;4143327;28;20053;-60
2022/12/19 09:49:54;;;;;;;4.07;3.78;;;15.80;61.60;;;;;;4142906;28;20220;-61
2022/12/19 09:52:40;;;;;;;5.03;4.57;;;15.90;61.50;;;;;;4157431;28;20064;-65
2022/12/19 09:55:27;;;;;;;4.47;4.07;;;15.90;61.50;;;;;;4159894;28;20056;-61
2022/12/19 09:58:16;;;;;;;5.30;4.82;;;16.00;61.40;;;;;;4159437;28;20064;-59
2022/12/19 10:01:00;;;;;;;5.28;4.78;;;16.00;61.20;;;;;;4159747;28;20061;-59
2022/12/19 10:03:45;;;;;;;5.00;4.60;;;16.00;61.10;;;;;;4158774;28;20048;-60
2022/12/19 10:06:26;;;;;;;4.80;4.47;;;16.00;61.30;;;;;;4159453;28;20130;-59
2022/12/19 10:09:34;;;;;;;4.93;4.43;;;15.90;61.50;;;;;;4159256;28;20519;-60
2022/12/19 10:12:52;;;;;;;4.95;4.45;;;15.90;61.50;;;;;;4142865;28;20183;-60
2022/12/19 10:15:48;;;;;;;4.80;4.40;;;15.90;61.40;;;;;;4144692;28;20061;-60
2022/12/19 10:18:50;;;;;;;6.57;4.53;;;15.80;61.80;;;;;;4158965;28;20118;-60
2022/12/19 10:21:42;;;;;;;5.72;5.20;;;15.80;62.20;;;;;;4159095;28;20043;-60
2022/12/19 10:25:02;;;;;;;7.63;5.47;;;15.80;62.40;;;;;;4146068;28;20139;-58
2022/12/19 10:27:52;;;;;;;7.00;6.03;;;15.70;63.00;;;;;;4147591;28;20064;-57
2022/12/19 10:30:44;;;;;;;6.38;5.78;;;15.70;64.20;;;;;;4144166;28;20188;-58
2022/12/19 10:33:32;;;;;;;6.32;5.78;;;15.70;64.20;;;;;;4145331;28;20495;-57
2022/12/19 10:36:14;;;;;;;7.25;6.22;;;15.70;64.30;;;;;;4153887;28;20056;-58
2022/12/19 10:38:58;;;;;;;;;;;15.70;64.50;;;;;;4156980;28;20059;-58
2022/12/19 10:41:42;;;;;;;6.65;5.95;;;15.60;64.80;;;;;;4144192;28;19936;-58
2022/12/19 10:44:30;;;;;;;6.78;5.75;;;15.50;64.90;;;;;;4149702;28;20048;-57
2022/12/19 10:47:16;;;;;;;7.20;6.50;;;15.50;65.30;;;;;;4144794;28;20579;-58
2022/12/19 10:49:57;;;;;;;6.57;5.97;;;15.50;65.50;;;;;;4150513;28;20103;-58
2022/12/19 10:53:07;;;;;;;6.40;5.80;;;15.50;66.00;;;;;;4146226;28;20069;-60
2022/12/19 10:55:49;;;;;;;7.30;5.25;;;15.50;64.90;;;;;;4158681;28;20064;-61
2022/12/19 10:58:36;;;;;;;6.13;5.63;;;15.50;64.80;;;;;;4146779;28;20080;-60
2022/12/19 11:01:23;;;;;;;7.03;5.53;;;15.50;65.70;;;;;;4143945;28;20053;-61
2022/12/19 11:04:21;;;;;;;5.40;4.90;;;15.60;65.00;;;;;;4159287;28;20052;-61
2022/12/19 11:07:18;;;;;;;5.65;5.15;;;15.60;64.60;;;;;;4150473;28;20530;-61
2022/12/19 11:09:59;;;;;;;6.15;5.53;;;15.70;64.30;;;;;;4144464;28;20051;-61
2022/12/19 11:12:52;;;;;;;5.93;5.32;;;15.80;64.00;;;;;;4143999;28;20065;-61
2022/12/19 11:15:56;;;;;;;6.13;5.15;;;15.80;63.80;;;;;;4143826;28;20061;-61
2022/12/19 11:18:43;;;;;;;7.15;5.38;;;15.80;63.50;;;;;;4154110;28;20056;-59
2022/12/19 11:21:44;;;;;;;6.55;4.72;;;15.90;63.40;;;;;;4143368;28;20057;-58
2022/12/19 11:24:50;;;;;;;6.25;5.10;;;16.00;63.40;;;;;;4144055;28;20088;-57
2022/12/19 11:27:52;;;;;;;5.82;5.22;;;15.90;63.20;;;;;;4155247;28;20056;-58
2022/12/19 11:31:00;;;;;;;;;;;16.00;64.00;;;;;;4155890;28;20107;-58
2022/12/19 11:34:07;;;;;;;5.30;4.40;;;16.10;63.30;;;;;;4157110;28;20127;-58
2022/12/19 11:36:51;;;;;;;4.85;4.45;;;16.10;63.10;;;;;;4151119;28;20077;-58
2022/12/19 11:39:40;;;;;;;5.95;4.95;;;16.20;62.90;;;;;;4148114;28;20049;-59
2022/12/19 11:42:25;;;;;;;5.35;4.85;;;16.20;62.60;;;;;;4146753;28;20060;-58
2022/12/19 11:45:14;;;;;;;5.63;4.90;;;16.30;62.40;;;;;;4143259;28;20435;-58
2022/12/19 11:48:01;;;;;;;6.18;5.28;;;16.30;62.20;;;;;;4156115;28;20053;-59
2022/12/19 11:50:52;;;;;;;4.90;4.50;;;16.30;62.10;;;;;;4143127;28;20397;-58
2022/12/19 11:53:38;;;;;;;7.13;4.22;;;16.30;62.30;;;;;;4143692;28;20118;-60
2022/12/19 11:56:23;;;;;;;5.60;4.78;;;16.10;62.40;;;;;;4148499;28;20156;-59
2022/12/19 11:59:15;;;;;;;5.57;4.55;;;16.00;62.70;;;;;;4142622;28;20095;-58
2022/12/19 12:02:08;;;;;;;5.60;5.10;;;16.00;62.90;;;;;;4146758;28;20147;-59
2022/12/19 12:05:07;;;;;;;4.15;3.80;;;16.00;63.10;;;;;;4148620;28;20562;-58
2022/12/19 12:07:55;;;;;;;4.50;4.10;;;15.90;63.10;;;;;;4142601;28;20172;-58
2022/12/19 12:11:00;;;;;;;4.53;4.10;;;16.00;63.10;;;;;;4142613;28;20139;-58
2022/12/19 12:14:13;;;;;;;3.92;3.60;;;15.90;63.10;;;;;;4157043;28;20455;-58
2022/12/19 12:17:30;;;;;;;4.57;4.15;;;15.90;63.20;;;;;;4158149;28;20107;-58
2022/12/19 12:20:40;;;;;;;4.25;3.85;;;15.80;63.40;;;;;;4156498;28;20087;-58
2022/12/19 12:23:54;;;;;;;4.75;4.18;;;15.80;63.70;;;;;;4144557;28;20157;-58
2022/12/19 12:27:03;;;;;;;4.25;3.83;;;15.80;63.70;;;;;;4149445;28;20050;-58
2022/12/19 12:30:10;;;;;;;4.38;4.07;;;15.90;63.80;;;;;;4146594;28;20084;-58
2022/12/19 12:33:25;;;;;;;4.70;4.30;;;15.90;64.00;;;;;;4144128;28;20057;-58
2022/12/19 12:36:37;;;;;;;5.68;4.20;;;15.90;63.90;;;;;;4155778;28;20087;-58
2022/12/19 12:39:49;;;;;;;3.90;3.60;;;15.90;63.70;;;;;;4146370;28;20049;-58
2022/12/19 12:42:45;;;;;;;5.75;3.75;;;15.90;63.70;;;;;;4144789;28;20080;-59
2022/12/19 12:45:32;;;;;;;3.88;3.58;;;15.90;63.90;;;;;;4150372;28;20135;-58
2022/12/19 12:48:21;;;;;;;4.68;4.28;;;15.90;64.00;;;;;;4150532;28;20412;-58
2022/12/19 12:51:02;;;;;;;4.10;3.70;;;15.90;63.90;;;;;;4157839;28;20114;-58
2022/12/19 12:53:48;;;;;;;4.43;3.80;;;15.90;63.90;;;;;;4146815;28;20141;-58
2022/12/19 12:56:29;;;;;;;4.13;3.72;;;15.90;63.90;;;;;;4142932;28;20132;-58
2022/12/19 12:59:23;;;;;;;5.57;4.18;;;15.90;64.00;;;;;;4154630;28;20169;-58
2022/12/19 13:02:14;;;;;;;4.60;4.00;;;15.80;64.20;;;;;;4144385;28;20072;-58
2022/12/19 13:04:58;;;;;;;3.65;3.35;;;15.80;64.40;;;;;;4142869;28;20049;-59
2022/12/19 13:07:43;;;;;;;5.43;4.13;;;15.80;64.20;;;;;;4141211;28;20056;-58
2022/12/19 13:10:27;;;;;;;4.78;4.15;;;15.80;64.20;;;;;;4145840;28;20261;-59
2022/12/19 13:13:14;;;;;;;4.63;3.80;;;15.80;64.20;;;;;;4141990;28;20052;-59
2022/12/19 13:15:59;;;;;;;5.50;5.00;;;15.80;64.20;;;;;;4156959;28;20106;-58
2022/12/19 13:18:40;;;;;;;4.17;3.80;;;15.70;64.30;;;;;;4157331;28;20049;-58
2022/12/19 13:21:22;;;;;;;4.50;4.10;;;15.60;64.50;;;;;;4148336;28;20051;-58
2022/12/19 13:24:14;;;;;;;4.18;3.78;;;15.60;64.80;;;;;;4143393;28;20057;-57
2022/12/19 13:26:57;;;;;;;5.30;4.38;;;15.50;65.10;;;;;;4156462;28;20060;-59
2022/12/19 13:30:02;;;;;;;4.90;4.30;;;15.40;65.30;;;;;;4142277;28;20092;-59
2022/12/19 13:33:06;;;;;;;4.25;3.85;;;15.40;65.50;;;;;;4141304;28;20064;-59
2022/12/19 13:35:48;;;;;;;4.72;4.25;;;15.40;65.60;;;;;;4144221;28;20145;-59
2022/12/19 13:38:50;;;;;;;5.20;4.07;;;15.50;65.30;;;;;;4141291;28;20061;-59
2022/12/19 13:45:19;;;;;;;;;;;15.60;64.80;;;;;;4156428;28;20056;-59
2022/12/19 13:48:03;;;;;;;5.25;4.18;;;15.60;64.70;;;;;;4151879;28;20037;-59
2022/12/19 13:50:47;;;;;;;4.47;4.07;;;15.50;65.00;;;;;;4147666;28;20052;-59
2022/12/19 13:53:29;;;;;;;5.55;3.85;;;15.50;65.20;;;;;;4156572;28;20207;-59
2022/12/19 13:56:13;;;;;;;4.43;4.03;;;15.60;65.10;;;;;;4142237;28;20060;-58
2022/12/19 13:58:58;;;;;;;4.50;4.10;;;15.60;65.00;;;;;;4141028;28;20691;-59
2022/12/19 14:01:41;;;;;;;4.35;3.95;;;15.60;64.90;;;;;;4141369;28;20048;-59
2022/12/19 14:04:28;;;;;;;4.13;3.78;;;15.60;64.80;;;;;;4142799;28;20082;-59
2022/12/19 14:07:29;;;;;;;4.53;4.00;;;15.60;65.00;;;;;;4147989;28;20060;-59
2022/12/19 14:10:17;;;;;;;4.47;3.75;;;15.50;65.10;;;;;;4141045;28;20060;-59
2022/12/19 14:16:24;;;;;;;3.70;3.40;;;15.40;65.50;;;;;;4155410;28;20040;-59
2022/12/19 14:19:21;;;;;;;3.63;3.33;;;15.40;65.50;;;;;;4141070;28;20052;-60
2022/12/19 14:22:10;;;;;;;4.75;3.60;;;15.40;65.60;;;;;;4140806;28;20540;-59
2022/12/19 14:24:57;;;;;;;4.32;3.92;;;15.40;65.70;;;;;;4150606;28;20069;-59
2022/12/19 14:27:53;;;;;;;3.78;3.47;;;15.40;65.80;;;;;;4141093;28;20107;-59
2022/12/19 14:30:59;;;;;;;4.93;4.43;;;15.30;65.90;;;;;;4141153;28;20088;-59